Montserrat Primero — EA3573 — position and weather

sailwx.info

Track history (hours):
 
Tides and Currents Weather Stations Pressure Air Temp Water Temp Dewpoint Dewpoint Depression Visibility Wind Speed Wind Dir Waves Ship Positions

Montserrat Primero

Last reported at 2017-Nov-17 15:32 UTC. Time now 2017-Nov-22 07:35 UTC.
Position N 41°13' E 001°44'.

Length 25 m.

Type: Fishing. MMSI: 224010960.

Date/timePositionNaut miles runAvg speedWind from/ knotsBaromVisibWave heightAir tempDewpointWater temp
2017-Nov-17 15:32N 41°13' E 001°44'0 0.0
2017-Nov-17 15:30N 41°13' E 001°44'0 0.0
2017-Nov-17 15:01N 41°13' E 001°44'3 5.4
2017-Nov-17 14:31N 41°10' E 001°44'4 8.4
2017-Nov-17 14:00N 41°06' E 001°44'0 0.3
2017-Nov-17 13:31N 41°06' E 001°44'1 2.0
2017-Nov-17 13:00N 41°05' E 001°44'1 2.3
2017-Nov-17 12:30N 41°04' E 001°44'2 3.2
2017-Nov-17 11:44N 41°02' E 001°42'0 1.7
2017-Nov-17 11:30N 41°02' E 001°42'1 2.0
2017-Nov-17 11:00N 41°03' E 001°43'2 3.9
2017-Nov-17 10:30N 41°05' E 001°44'1 2.3
2017-Nov-17 09:56N 41°03' E 001°44'2 3.5
2017-Nov-17 09:22N 41°02' E 001°42'1 1.9
2017-Nov-17 09:00N 41°02' E 001°43'1 2.1
2017-Nov-17 08:30N 41°03' E 001°43'1 2.8
2017-Nov-17 08:00N 41°04' E 001°44'1 2.4
2017-Nov-17 07:30N 41°03' E 001°44'1 2.2
2017-Nov-17 07:00N 41°02' E 001°43'1 1.3
2017-Nov-17 06:30N 41°03' E 001°42'613.0
2017-Nov-17 06:00N 41°09' E 001°43'4 7.4
2017-Nov-17 05:30N 41°13' E 001°44'0 0.3
2017-Nov-17 05:01N 41°13' E 001°44'0 0.0
2017-Nov-17 04:31N 41°13' E 001°44'0 0.0
2017-Nov-16 15:56N 41°13' E 001°44'0 0.1
2017-Nov-16 15:30N 41°13' E 001°44'4 7.2
2017-Nov-16 15:00N 41°09' E 001°43'510.5
2017-Nov-16 14:30N 41°04' E 001°42'2 3.6
2017-Nov-16 14:00N 41°02' E 001°43'0 0.5
2017-Nov-16 13:30N 41°03' E 001°43'1 2.2
2017-Nov-16 13:00N 41°04' E 001°43'0 0.7
2017-Nov-16 12:30N 41°04' E 001°44'1 2.4
2017-Nov-16 11:59N 41°03' E 001°43'1 1.9
2017-Nov-16 11:30N 41°02' E 001°42'1 2.0
2017-Nov-16 11:00N 41°03' E 001°43'2 3.8
2017-Nov-16 10:30N 41°05' E 001°44'1 2.3
2017-Nov-16 09:56N 41°03' E 001°44'1 2.4
2017-Nov-16 09:28N 41°02' E 001°43'0 0.7
2017-Nov-16 09:00N 41°02' E 001°43'1 2.1
2017-Nov-16 08:30N 41°03' E 001°43'1 2.5
2017-Nov-16 07:59N 41°04' E 001°44'2 2.4
2017-Nov-16 07:18N 41°03' E 001°43'1 2.0
2017-Nov-16 06:56N 41°02' E 001°43'1 1.6
2017-Nov-16 06:30N 41°03' E 001°42'713.0
2017-Nov-16 06:00N 41°09' E 001°43'3 6.9
2017-Nov-16 05:30N 41°13' E 001°44'0 0.8
2017-Nov-16 05:00N 41°13' E 001°44'0 0.0
2017-Nov-15 15:46N 41°13' E 001°44'0 0.0
2017-Nov-15 15:30N 41°13' E 001°44'0 0.6
2017-Nov-15 15:00N 41°13' E 001°44'4 8.1
2017-Nov-15 14:30N 41°09' E 001°44'3 5.1
2017-Nov-15 13:57N 41°06' E 001°44'0 0.3
2017-Nov-15 13:30N 41°06' E 001°44'1 2.0
2017-Nov-15 13:00N 41°05' E 001°44'1 2.2
2017-Nov-15 12:30N 41°04' E 001°44'1 2.4
2017-Nov-15 12:00N 41°03' E 001°43'1 1.4
2017-Nov-15 11:29N 41°02' E 001°43'1 2.0
2017-Nov-15 11:00N 41°03' E 001°43'2 3.7
2017-Nov-15 10:30N 41°05' E 001°44'2 2.4
2017-Nov-15 09:39N 41°03' E 001°43'1 3.6
2017-Nov-15 09:25N 41°02' E 001°43'0 0.7
2017-Nov-15 09:00N 41°02' E 001°43'1 2.1
2017-Nov-15 08:30N 41°03' E 001°43'1 2.4
2017-Nov-15 07:59N 41°04' E 001°44'2 1.7
2017-Nov-15 06:32N 41°02' E 001°42'013.2
2017-Nov-15 06:30N 41°03' E 001°42'613.0
2017-Nov-15 06:01N 41°09' E 001°43'4 7.6
2017-Nov-15 05:30N 41°13' E 001°44'0 0.4
2017-Nov-15 05:00N 41°13' E 001°44'0 0.0
2017-Nov-15 04:30N 41°13' E 001°44'11 0.7
2017-Nov-14 13:38N 41°02' E 001°43'0 2.0
2017-Nov-14 13:30N 41°03' E 001°43'1 2.2
2017-Nov-14 13:01N 41°04' E 001°43'0 0.5
2017-Nov-14 12:28N 41°04' E 001°44'2 2.9
2017-Nov-14 11:43N 41°02' E 001°42'0 2.0
2017-Nov-14 11:29N 41°02' E 001°43'1 2.0
2017-Nov-14 11:00N 41°03' E 001°43'2 3.0
2017-Nov-14 10:27N 41°04' E 001°44'2 2.4
2017-Nov-14 09:37N 41°03' E 001°43'1 3.8
2017-Nov-14 09:21N 41°02' E 001°42'1 2.0
2017-Nov-14 09:00N 41°02' E 001°43'1 2.1
2017-Nov-14 08:28N 41°03' E 001°43'1 2.1
2017-Nov-14 07:59N 41°04' E 001°44'2 2.4
2017-Nov-14 07:21N 41°03' E 001°43'1 1.2
2017-Nov-14 06:33N 41°02' E 001°42'112.9
2017-Nov-14 06:30N 41°03' E 001°42'612.7
2017-Nov-14 06:00N 41°09' E 001°43'3 7.0
2017-Nov-14 05:30N 41°13' E 001°44'0 0.7
2017-Nov-14 05:00N 41°13' E 001°44'  
2017-Nov-10 15:21N 41°13' E 001°44'3 8.8
2017-Nov-10 15:00N 41°10' E 001°43'7 3.4
2017-Nov-10 13:05N 41°03' E 001°43'0 2.3
2017-Nov-10 12:59N 41°04' E 001°43'1 0.4
2017-Nov-10 11:00N 41°03' E 001°43'2 3.5
2017-Nov-10 10:30N 41°04' E 001°44'3 2.5
2017-Nov-10 09:16N 41°02' E 001°42'2 2.1
2017-Nov-10 08:16N 41°04' E 001°43'1 0.6
2017-Nov-10 06:29N 41°03' E 001°42'612.8
2017-Nov-10 06:00N 41°09' E 001°43'3 6.9
2017-Nov-10 05:30N 41°12' E 001°44'1 1.2
2017-Nov-10 05:00N 41°13' E 001°44'0 0.0
2017-Nov-09 16:09N 41°13' E 001°44'0 0.0
2017-Nov-09 16:00N 41°13' E 001°44'0 0.1
2017-Nov-09 15:30N 41°13' E 001°44'1 2.9
2017-Nov-09 15:00N 41°12' E 001°44'510.9
2017-Nov-09 14:30N 41°06' E 001°44'1 1.8
2017-Nov-09 13:58N 41°05' E 001°45'1 2.4
2017-Nov-09 13:30N 41°04' E 001°44'3 3.0
2017-Nov-09 12:26N 41°01' E 001°42'1 1.9
2017-Nov-09 11:56N 41°02' E 001°43'1 2.1
2017-Nov-09 11:30N 41°03' E 001°43'2 3.6
2017-Nov-09 11:00N 41°05' E 001°44'1 2.0
2017-Nov-09 10:25N 41°03' E 001°44'2 3.3
2017-Nov-09 09:43N 41°01' E 001°42'1 1.8
2017-Nov-09 09:25N 41°02' E 001°42'1 2.1
2017-Nov-09 08:59N 41°03' E 001°43'1 2.3
2017-Nov-09 08:30N 41°04' E 001°43'1 0.5
2017-Nov-09 06:30N 41°03' E 001°42'612.5
2017-Nov-09 06:00N 41°09' E 001°43'3 6.7
2017-Nov-09 05:30N 41°12' E 001°44'0 0.9
2017-Nov-09 05:00N 41°13' E 001°44'0 0.0
2017-Nov-08 15:43N 41°13' E 001°44'0 0.0
2017-Nov-08 15:30N 41°13' E 001°44'1 2.1
2017-Nov-08 15:00N 41°12' E 001°44'10 9.5
2017-Nov-08 13:59N 41°05' E 001°53'0 0.5
2017-Nov-08 13:30N 41°05' E 001°52'1 2.1
2017-Nov-08 13:00N 41°05' E 001°51'2 1.5
2017-Nov-08 11:56N 41°04' E 001°53'1 1.8
2017-Nov-08 11:30N 41°05' E 001°52'1 2.1
2017-Nov-08 11:00N 41°06' E 001°51'3 5.9
2017-Nov-08 10:30N 41°05' E 001°47'5 8.8
2017-Nov-08 09:58N 41°02' E 001°42'0 0.5
2017-Nov-08 09:25N 41°02' E 001°43'1 2.2
2017-Nov-08 08:59N 41°03' E 001°43'1 2.7
2017-Nov-08 08:30N 41°04' E 001°44'3 5.1
2017-Nov-08 08:00N 41°02' E 001°42'0 0.5
2017-Nov-08 07:24N 41°02' E 001°43'1 2.1
2017-Nov-08 07:00N 41°03' E 001°43'1 2.2
2017-Nov-08 06:30N 41°04' E 001°44'510.4
2017-Nov-08 06:00N 41°09' E 001°43'3 6.8
2017-Nov-08 05:31N 41°13' E 001°44'0 0.8
2017-Nov-08 05:00N 41°13' E 001°44'  
Track history (hours):
 
Tides and Currents Weather Stations Pressure Air Temp Water Temp Dewpoint Dewpoint Depression Visibility Wind Speed Wind Dir Waves Ship Positions

Montserrat Primero

Last reported at 2017-Nov-17 15:32 UTC. Time now 2017-Nov-22 07:35 UTC.
Position N 41°13' E 001°44'.

Length 25 m.

Type: Fishing. MMSI: 224010960.

Date/timePositionNaut miles runAvg speedWind from/ knotsBaromVisibWave heightAir tempDewpointWater temp
2017-Nov-17 15:32N 41°13' E 001°44'0 0.0
2017-Nov-17 15:30N 41°13' E 001°44'0 0.0
2017-Nov-17 15:01N 41°13' E 001°44'3 5.4
2017-Nov-17 14:31N 41°10' E 001°44'4 8.4
2017-Nov-17 14:00N 41°06' E 001°44'0 0.3
2017-Nov-17 13:31N 41°06' E 001°44'1 2.0
2017-Nov-17 13:00N 41°05' E 001°44'1 2.3
2017-Nov-17 12:30N 41°04' E 001°44'2 3.2
2017-Nov-17 11:44N 41°02' E 001°42'0 1.7
2017-Nov-17 11:30N 41°02' E 001°42'1 2.0
2017-Nov-17 11:00N 41°03' E 001°43'2 3.9
2017-Nov-17 10:30N 41°05' E 001°44'1 2.3
2017-Nov-17 09:56N 41°03' E 001°44'2 3.5
2017-Nov-17 09:22N 41°02' E 001°42'1 1.9
2017-Nov-17 09:00N 41°02' E 001°43'1 2.1
2017-Nov-17 08:30N 41°03' E 001°43'1 2.8
2017-Nov-17 08:00N 41°04' E 001°44'1 2.4
2017-Nov-17 07:30N 41°03' E 001°44'1 2.2
2017-Nov-17 07:00N 41°02' E 001°43'1 1.3
2017-Nov-17 06:30N 41°03' E 001°42'613.0
2017-Nov-17 06:00N 41°09' E 001°43'4 7.4
2017-Nov-17 05:30N 41°13' E 001°44'0 0.3
2017-Nov-17 05:01N 41°13' E 001°44'0 0.0
2017-Nov-17 04:31N 41°13' E 001°44'0 0.0
2017-Nov-16 15:56N 41°13' E 001°44'0 0.1
2017-Nov-16 15:30N 41°13' E 001°44'4 7.2
2017-Nov-16 15:00N 41°09' E 001°43'510.5
2017-Nov-16 14:30N 41°04' E 001°42'2 3.6
2017-Nov-16 14:00N 41°02' E 001°43'0 0.5
2017-Nov-16 13:30N 41°03' E 001°43'1 2.2
2017-Nov-16 13:00N 41°04' E 001°43'0 0.7
2017-Nov-16 12:30N 41°04' E 001°44'1 2.4
2017-Nov-16 11:59N 41°03' E 001°43'1 1.9
2017-Nov-16 11:30N 41°02' E 001°42'1 2.0
2017-Nov-16 11:00N 41°03' E 001°43'2 3.8
2017-Nov-16 10:30N 41°05' E 001°44'1 2.3
2017-Nov-16 09:56N 41°03' E 001°44'1 2.4
2017-Nov-16 09:28N 41°02' E 001°43'0 0.7
2017-Nov-16 09:00N 41°02' E 001°43'1 2.1
2017-Nov-16 08:30N 41°03' E 001°43'1 2.5
2017-Nov-16 07:59N 41°04' E 001°44'2 2.4
2017-Nov-16 07:18N 41°03' E 001°43'1 2.0
2017-Nov-16 06:56N 41°02' E 001°43'1 1.6
2017-Nov-16 06:30N 41°03' E 001°42'713.0
2017-Nov-16 06:00N 41°09' E 001°43'3 6.9
2017-Nov-16 05:30N 41°13' E 001°44'0 0.8
2017-Nov-16 05:00N 41°13' E 001°44'0 0.0
2017-Nov-15 15:46N 41°13' E 001°44'0 0.0
2017-Nov-15 15:30N 41°13' E 001°44'0 0.6
2017-Nov-15 15:00N 41°13' E 001°44'4 8.1
2017-Nov-15 14:30N 41°09' E 001°44'3 5.1
2017-Nov-15 13:57N 41°06' E 001°44'0 0.3
2017-Nov-15 13:30N 41°06' E 001°44'1 2.0
2017-Nov-15 13:00N 41°05' E 001°44'1 2.2
2017-Nov-15 12:30N 41°04' E 001°44'1 2.4
2017-Nov-15 12:00N 41°03' E 001°43'1 1.4
2017-Nov-15 11:29N 41°02' E 001°43'1 2.0
2017-Nov-15 11:00N 41°03' E 001°43'2 3.7
2017-Nov-15 10:30N 41°05' E 001°44'2 2.4
2017-Nov-15 09:39N 41°03' E 001°43'1 3.6
2017-Nov-15 09:25N 41°02' E 001°43'0 0.7
2017-Nov-15 09:00N 41°02' E 001°43'1 2.1
2017-Nov-15 08:30N 41°03' E 001°43'1 2.4
2017-Nov-15 07:59N 41°04' E 001°44'2 1.7
2017-Nov-15 06:32N 41°02' E 001°42'013.2
2017-Nov-15 06:30N 41°03' E 001°42'613.0
2017-Nov-15 06:01N 41°09' E 001°43'4 7.6
2017-Nov-15 05:30N 41°13' E 001°44'0 0.4
2017-Nov-15 05:00N 41°13' E 001°44'0 0.0
2017-Nov-15 04:30N 41°13' E 001°44'11 0.7
2017-Nov-14 13:38N 41°02' E 001°43'0 2.0
2017-Nov-14 13:30N 41°03' E 001°43'1 2.2
2017-Nov-14 13:01N 41°04' E 001°43'0 0.5
2017-Nov-14 12:28N 41°04' E 001°44'2 2.9
2017-Nov-14 11:43N 41°02' E 001°42'0 2.0
2017-Nov-14 11:29N 41°02' E 001°43'1 2.0
2017-Nov-14 11:00N 41°03' E 001°43'2 3.0
2017-Nov-14 10:27N 41°04' E 001°44'2 2.4
2017-Nov-14 09:37N 41°03' E 001°43'1 3.8
2017-Nov-14 09:21N 41°02' E 001°42'1 2.0
2017-Nov-14 09:00N 41°02' E 001°43'1 2.1
2017-Nov-14 08:28N 41°03' E 001°43'1 2.1
2017-Nov-14 07:59N 41°04' E 001°44'2 2.4
2017-Nov-14 07:21N 41°03' E 001°43'1 1.2
2017-Nov-14 06:33N 41°02' E 001°42'112.9
2017-Nov-14 06:30N 41°03' E 001°42'612.7
2017-Nov-14 06:00N 41°09' E 001°43'3 7.0
2017-Nov-14 05:30N 41°13' E 001°44'0 0.7
2017-Nov-14 05:00N 41°13' E 001°44'  
2017-Nov-10 15:21N 41°13' E 001°44'3 8.8
2017-Nov-10 15:00N 41°10' E 001°43'7 3.4
2017-Nov-10 13:05N 41°03' E 001°43'0 2.3
2017-Nov-10 12:59N 41°04' E 001°43'1 0.4
2017-Nov-10 11:00N 41°03' E 001°43'2 3.5
2017-Nov-10 10:30N 41°04' E 001°44'3 2.5
2017-Nov-10 09:16N 41°02' E 001°42'2 2.1
2017-Nov-10 08:16N 41°04' E 001°43'1 0.6
2017-Nov-10 06:29N 41°03' E 001°42'612.8
2017-Nov-10 06:00N 41°09' E 001°43'3 6.9
2017-Nov-10 05:30N 41°12' E 001°44'1 1.2
2017-Nov-10 05:00N 41°13' E 001°44'0 0.0
2017-Nov-09 16:09N 41°13' E 001°44'0 0.0
2017-Nov-09 16:00N 41°13' E 001°44'0 0.1
2017-Nov-09 15:30N 41°13' E 001°44'1 2.9
2017-Nov-09 15:00N 41°12' E 001°44'510.9
2017-Nov-09 14:30N 41°06' E 001°44'1 1.8
2017-Nov-09 13:58N 41°05' E 001°45'1 2.4
2017-Nov-09 13:30N 41°04' E 001°44'3 3.0
2017-Nov-09 12:26N 41°01' E 001°42'1 1.9
2017-Nov-09 11:56N 41°02' E 001°43'1 2.1
2017-Nov-09 11:30N 41°03' E 001°43'2 3.6
2017-Nov-09 11:00N 41°05' E 001°44'1 2.0
2017-Nov-09 10:25N 41°03' E 001°44'2 3.3
2017-Nov-09 09:43N 41°01' E 001°42'1 1.8
2017-Nov-09 09:25N 41°02' E 001°42'1 2.1
2017-Nov-09 08:59N 41°03' E 001°43'1 2.3
2017-Nov-09 08:30N 41°04' E 001°43'1 0.5
2017-Nov-09 06:30N 41°03' E 001°42'612.5
2017-Nov-09 06:00N 41°09' E 001°43'3 6.7
2017-Nov-09 05:30N 41°12' E 001°44'0 0.9
2017-Nov-09 05:00N 41°13' E 001°44'0 0.0
2017-Nov-08 15:43N 41°13' E 001°44'0 0.0
2017-Nov-08 15:30N 41°13' E 001°44'1 2.1
2017-Nov-08 15:00N 41°12' E 001°44'10 9.5
2017-Nov-08 13:59N 41°05' E 001°53'0 0.5
2017-Nov-08 13:30N 41°05' E 001°52'1 2.1
2017-Nov-08 13:00N 41°05' E 001°51'2 1.5
2017-Nov-08 11:56N 41°04' E 001°53'1 1.8
2017-Nov-08 11:30N 41°05' E 001°52'1 2.1
2017-Nov-08 11:00N 41°06' E 001°51'3 5.9
2017-Nov-08 10:30N 41°05' E 001°47'5 8.8
2017-Nov-08 09:58N 41°02' E 001°42'0 0.5
2017-Nov-08 09:25N 41°02' E 001°43'1 2.2
2017-Nov-08 08:59N 41°03' E 001°43'1 2.7
2017-Nov-08 08:30N 41°04' E 001°44'3 5.1
2017-Nov-08 08:00N 41°02' E 001°42'0 0.5
2017-Nov-08 07:24N 41°02' E 001°43'1 2.1
2017-Nov-08 07:00N 41°03' E 001°43'1 2.2
2017-Nov-08 06:30N 41°04' E 001°44'510.4
2017-Nov-08 06:00N 41°09' E 001°43'3 6.8
2017-Nov-08 05:31N 41°13' E 001°44'0 0.8
2017-Nov-08 05:00N 41°13' E 001°44'  

Dump ship's entire track history